Washington State Corporations
Fitness

Jurisdiction:Washington State
Source:Washington State Secretary of State

This dataset includes 2.43 million business entities registered with Washington State Secretary of State.

fitness · Search Result

Corporation Name Office Address Agent Start Date
EDGE FITNESS LLC 2806 29th Ave Sw Ste A, Tumwater, WA 98512-6155 EDGE FITNESS 2018-07-19
HOME BODY FITNESS, INC. 3400 Capitol Blvd Se, Tumwater, WA 98501 FAIRCHILD RECORD SEARCH, LTD. 2018-07-09
THE BODY SHOP 24/7 FITNESS LLC 207 E Main Ave, Chewelah, WA 99109 2018-07-05
K&GM FITNESS, LLC 4814 Nw Walgren Dr, Silverdale, WA 98383-8828 2018-07-01
POLICY FITNESS, LLC 14205 Se 36th St Ste 100, Bellevue, WA 98006-1553 UNITED STATES CORPORATION AGENTS, INC. 2018-06-28
WIND RIVER FITNESS LLC 51 Hot Springs Ave, Carson, WA 98610-3315 WIND RIVER FITNESS LLC 2018-06-28
KINETICS FITNESS BRAND LLC 11638 Ne 100th St, Kirkland, WA 98033-5183 2018-06-26
SIMPLE SUCCESS FITNESS, LLC 906 W 2nd Ave Ste 100, Spokane, WA 99201 NORTHWEST REGISTERED AGENT, LLC 2018-06-21
PRECISION FITNESS REPAIR LLC 14205 Se 36th St Ste 100, Bellevue, WA 98006-1553 UNITED STATES CORPORATION AGENTS, INC. 2018-06-18
DERRIK HOANG FITNESS, LLC 2038 155th Pl Ne Apt A503, Bellevue, WA 98007-5062 2018-06-18
FOUNDATIONS THERAFITNESS AND PHYSICAL THERAPY, LLC 6028 Tiger Tail Dr Sw, Olympia, WA 98512-2141 2018-06-12
TOP FITNESS, LLC. 13801 8th Ave S, Burien, WA 98168-3603 2018-06-12
PEAK HEALTH AND FITNESS LLC 1442 Nw 202nd Lane, Seattle, WA 98177 2018-06-11
SEATTLE GOLF FITNESS, LLC 4155 Boulevard Pl, Mercer Island, WA 98040-3403 SEATTLE GOLF FITNESS 2018-06-05
FLY FITNESS PERSONAL TRAINING, INC. 12407 Nw 48th Ct, Vancouver, WA 98685-3317 2018-06-04
TAMIRAAHAN HEALTH & FITNESS LLC 15205 140th Way Se Apt C304, Renton, WA 98058-7854 2018-05-30
KMF FITNESS, LLC 8436 21st Ave Se, Lacey, WA 98513-4537 2018-05-25
WARRIOR TRAIN FITNESS LLC 20319 79th St E, Bonney Lake, WA 98391-7389 2018-05-24
GRITWORX FITNESS, LLC 606 Se 117th Ave Ste 100, Vancouver, WA 98683-5283 2018-05-17
CANINE COMFORT REHABILITATION AND FITNESS PLLC 1272 Highland Dr, Oak Harbor, WA 98277-8004 2018-05-14
ACTIVE FOR LIFE SPORTSMEDICINE AND FITNESS, LLC 307 Fairway Dr, Aberdeen, WA 98520-7032 ACTIVE FOR LIFE SPORTSMEDICINE AND FITNESS, LLC 2018-05-10
INTOXICADEDFITNESS, LLC 14205 Se 36th St Ste 100, Bellevue, WA 98006-1553 UNITED STATES CORPORATION AGENTS, INC 2018-05-09
KATELYN PAGE FITNESS LLC 1019 E Pike St Apt R, Seattle, WA 98122-3842 2018-05-09
STILLY COMMUNITY FITNESS 4517 256th St Ne, Arlington, WA 98223-5737 STILLYCOMMUNITYFITNESS@GMAIL.COM 2018-05-08
EMPOWER LIFE FITNESS, LLC 2515 Nw 47th Ave, Camas, WA 98607-8314 2018-05-02
BODYVERA FITNESS, LLC 6409 S Bangor St, Seattle, WA 98178-2404 2018-05-01
FIGURING OUT FITNESS, INC 2424 13th St Sw, Puyallup, WA 98373-6045 2018-05-01
FITNESSFORLIFE LLC 1601 F Street, Bellingham, WA 98225 SALISH CORPORATE SERVICES, LLC 2018-04-27
SIMPLY FITNESS LLC 8850 1st Ave Ne, Seattle, WA 98115-2904 2018-04-27
EVERYTHING FITNESS, LLC 14205 Se 36th St Ste 100, Bellevue, WA 98006-1553 UNITED STATES CORPORATION AGENTS, INC 2018-04-25
BBD FITNESS, LLC 530 2nd Ave Apt 314, Kirkland, WA 98033-6262 2018-04-25
CORNERSTONE FITNESS LLC 2107 Diamond Way, Yakima, WA 98903-5002 CORNERSTONE FITNESS 2018-04-23
RECONNECT FITNESS LLC 8157 32nd Ave Sw, Seattle, WA 98126 2018-04-17
EVOLVE STRONG FITNESS, LLC 13917 Overlook Dr E #204, Bonney Lake, WA 98391-5229 2018-04-09
SEATTLE FITNESS SERVICES LLC 22025 61st Ave Se, Bothell, WA 98021-8008 2018-04-06
STRATEGIC PERFORMANCE FITNESS, LLC 14205 Se 36th St Ste 100, Bellevue, WA 98006-1553 UNITED STATES CORPORATION AGENTS, INC 2018-04-06
FITNESS BY YAZ, LLC 1511 3rd Ave Suite 1088, Seattle, WA 98101-3635 CHUNG, MALHAS & MANTEL, PLLC 2018-04-02
SONDER FITNESS, LLC 6007 37th Ave Sw, Seattle, WA 98126-3015 2018-03-28
FITNESS QUEST LLC 701 5th Ave Ste 5500, Seattle, WA 98104 MPBA SERVICE COMPANY LLC 2018-03-27
RAPTOR FITNESS LLC 5606 46th Ave Sw, Seattle, WA 98136-1403 2018-03-27
FEARLESS FITNESS LLC 12116 Ne 162nd Pl, Bothell, WA 98011-4145 2018-03-21
KDM FITNESS GROUP, LLC 12233 Ne 109th Pl, Kirkland, WA 98033-5001 2018-03-20
EMBODY FITNESS, LLC 19934 330th Ave Ne, Duvall, WA 98019-9751 2018-03-20
RAINIER MEDICAL HEALTH & FITNESS, LLC 3555 Market Pl W Ste 1, Tacoma, WA 98466-4485 2018-03-16
BLACK FLAG FITNESS L.L.C 13328 112th Ave E, Puyallup, WA 98374 2018-03-14
SF FITNESS, LLC 6018 23rd Ave S, Seattle, WA 98108-2946 SF FITNESS 2018-03-13
BLUE WATER HEALTH AND FITNESS, LLC 536 19th Pl, Kirkland, WA 98033-4902 BLUE WATER HEALTH AND FITNESS, LLC 2018-03-08
YANTI FITNESS LLC 27734 Ne 30th St, Redmond, WA 98053-3125 YANTI FITNESS 2018-03-06
SC FITNESS AND COACHING LLC 2400 4th Ave Apt 269, Seattle, WA 98121-3405 SC FITNESS AND COACHING 2018-03-06
APPLE VALLEY FITNESS LLC 1507 Fairview Ave, Bridgeport, WA 98813 2018-03-05
BUTTERFLY FITNESS LLC 6111 N Walnut St, Spokane, WA 99205-6752 2018-03-01
CROSSROADS TO HEALTH AND FITNESS, INC. 10803 Se 18th Cir, Vancouver, WA 98664-6194 CROSSROADS TO HEALTH AND FITNESS, INC. 2018-03-01
NEW LIFE FITNESS LLC 1921 Carbon Ridge St, Enumclaw, WA 98022-8305 2018-02-28
AUTORUN FITNESS LLC 900 S Grady Way, Renton, WA 98057-3231 2018-02-27
VANCOUVER FITNESS, LLC 16621 Ne 130th Ave, Brush Prairie, WA 98606-9540 2018-02-27
FITNESS UNDERGROUND LLC 1629 Harvard Ave Apt 308, Seattle, WA 98122-2260 FITNESS UNDERGROUND LLC 2018-02-26
EFFICIENT FITNESS, LLC 508 N Pacific St, Ellensburg, WA 98926-2736 2018-02-26
A & D AUTO FITNESS LLC 31639 3rd Pl Sw Apt C, Federal Way, WA 98023-4813 2018-02-16
BODYSHOP FITNESS, LLC 14205 Se 36th St Ste 100, Bellevue, WA 98006-1553 UNITED STATES CORPORATION AGENTS, INC 2018-02-06
AXON FITNESS, LLC 5090 Sw Running Deer Way, Port Orchard, WA 98367-6992 2018-02-06
PHANTOM SPORTS & FITNESS LLC 26207 Maple Valley Black Diamond Rd Se Suite E, Maple Valley, WA 98038-8378 PHANTOM SPORTS 2018-02-05
ASAPFITNESS, LLC. 3028 1st Ave Unit 314, Seattle, WA 98121-3934 2018-02-02
PANTS FITNESS, LLC 8203 64th Ave E, Puyallup, WA 98371-5514 PANTS LLC 2018-02-01
RESILIENT HEALTH & FITNESS LLC 11031 Cornell Ave S, Seattle, WA 98178-3114 2018-01-31
BEST LIFE FITNESS AND COACHING LLC 804 Market St Apt D, Kirkland, WA 98033-5442 BEST LIFE FITNESS AND COACHING 2018-01-29
LAKE TAPPS FITNESS, LLC 4126 100th Ave Se, Mercer Island, WA 98040-3815 2018-01-26
DES MOINES FITNESS, LLC 4126 100th Ave Se, Mercer Island, WA 98040-3815 2018-01-26
FEDERAL WAY FITNESS, LLC 4126 100th Ave Se, Mercer Island, WA 98040-3815 2018-01-26
NOT TOO SHABBY FITNESS, LLC 13215 Se Mill Plain Blvd C8 #644, Vancouver, WA 98684-6991 NOT TOO SHABBY FITNESS, LLC 2018-01-26
OLYMPIA FITNESS, LLC 4126 100th Ave Se, Mercer Island, WA 98040-3815 2018-01-26
GIG HARBOR FITNESS, LLC 4126 100th Ave Se, Mercer Island, WA 98040-3815 2018-01-26
BLINN FITNESS, INC 21907 64th Ave W Suite 360, Mountlake Ter, WA 98043-6202 CRYSTAL D ADAMS INC 2018-01-25
FORZA FITNESS NW LLC 8401 E Sprague Ave, Spokane Vly, WA 99212-2917 2018-01-25
RAPPE FITNESS LLC 1001 4th Ave Ste 3200, Seattle, WA 98154-1003 LEGALINC CORPORATE SERVICES INC. 2018-01-23
SPEARHEAD FITNESS LLC 11110 110th Ave Sw, Tacoma, WA 98498-1338 2018-01-17
AFJ TEAM SPORT FITNESS, LLC 14205 Se 36th St Ste 100, Bellevue, WA 98006-1553 UNITED STATES CORPORATION AGENTS, INC 2018-01-11
PACOUS FITNESS APPAREL LLC 14205 Se 36th St Ste 100, Bellevue, WA 98006-1553 UNITED STATES CORPORATION AGENTS, INC 2018-01-10
STONE FITNESS LLC 20706 59th Dr Ne, Arlington, WA 98223-4202 STONE FITNESS 2018-01-08
BUELT2LAST FITNESS LLC 1001 4th Ave Ste 3200, Seattle, WA 98154-1003 LEGALINC CORPORATE SERVICES INC. 2018-01-05
HEADSTRONG FITNESS LLC 13415 Ne 45th St, Vancouver, WA 98682-6540 2018-01-05
MAXTHERAPY FITNESS LLC 6911 Ne 97th Ave, Vancouver, WA 98662-4543 MAXTHERAPY 2018-01-04
FIND YOUR FITNESS LLC 711 5th St Ne, Puyallup, WA 98372-2933 FIND YOUR FITNESS 2018-01-04
LONGEVITY FITNESS LLC 1001 4th Ave Ste 3200, Seattle, WA 98154-1003 LEGALINC CORPORATE SERVICES INC. 2018-01-03
RYNOFITNESS LLC 110 Nw 139th St, Vancouver, WA 98685-2548 2018-01-02
509 FITNESS LLC 739 Ne North Ave, Wilbur, WA 99185-8884 2018-01-01
NW FUNCTIONAL FITNESS, LLC 3400 Capitol Blvd. Se Suite 101, Tumwater, WA 98501 REGISTERED AGENT SOLUTIONS, INC. 2017-12-22
HORIZON SPORTS AND FITNESS, LLC 14602 Ne Fourth Plain Blvd Ste I, Vancouver, WA 98682-5023 HORIZON SPORTS AND FITNESS, LLC 2017-12-18
3D-FITNESS, LLC 201 N Edison St Ste 242, Kennewick, WA 99336 2017-12-18
WOW FTINESS (WORK OUT WOMEN FITNESS) 170 S Lincoln Ste 100, Spokane, WA 99201 WASHINGTON REGISTERED AGENT LLC 2017-12-18
SLIK FITNESS LLC 11009 188th Ave E, Bonney Lake, WA 98391-6028 2017-12-15
KAT FITNESS LLC 124 Lesa Marie Ln, Kennewick, WA 99338-7322 2017-12-14
ATR FITNESS TRAINING LLC 11328 Ne 51st Cir Apt 125, Vancouver, WA 98682-1212 2017-12-13
ARYUNI FITNESS LLC 194 241st Place Se, Sammamish, WA 98074 2017-12-13
12 STONES HEALTH AND FITNESS, LLC 8303 W 4th Pl, Kennewick, WA 99336-9469 2017-12-13
TEAM MUV FITNESS TANASBOURNE LLC 1191 2nd Ave Ste 2000, Seattle, WA 98101-3404 PACIFICA LAW GROUP LLP 2017-12-12
FUNCTIONAL TOTAL FITNESS & PERSONAL TRAINING LLC 6001 Meridian Ave, Everett, WA 98203-3467 2017-12-11
BALANCED FITNESS 4U, LLC 18321 E Appleway Ave, Spokane Vly, WA 99016-9591 BALANCED FITNESS 4U, LLC 2017-12-06
FITNESS PHILOSOPHERS, LLC 14205 Se 36th St Ste 100, Bellevue, WA 98006-1553 UNITED STATES CORPORATION AGENTS, INC 2017-12-04
MH FITNESS LLC 505 W Roy St #402, Seattle, WA 98119-3883 2017-11-30
TOPAZ FITNESS, LLC 35908 Se Sandalee Ct, Snoqualmie, WA 98065 2017-11-29